Time;durP1;ratioP1;P1;durP2;ratioP2;P2;SDS_P1;SDS_P2;PMS_P1;PMS_P2;Temp;Humidity;BMP_temperature;BMP_pressure;BME280_temperature;BME280_humidity;BME280_pressure;Samples;Min_cycle;Max_cycle;Signal;HPM_P1;HPM_P2
2021/09/29 00:02:17;;;;;;;7.40;2.85;;;10.70;99.90;;;;;;5071226;28;20087;-48
2021/09/29 00:04:43;;;;;;;4.50;2.92;;;10.70;99.90;;;;;;5071203;28;20036;-49
2021/09/29 00:07:08;;;;;;;3.88;2.90;;;10.60;99.90;;;;;;5057539;28;20378;-49
2021/09/29 00:09:34;;;;;;;5.00;3.28;;;10.60;99.90;;;;;;5066274;28;20532;-48
2021/09/29 00:11:59;;;;;;;9.13;3.63;;;10.60;99.90;;;;;;5070949;28;20167;-47
2021/09/29 00:14:25;;;;;;;4.72;2.80;;;10.60;99.90;;;;;;5071310;28;20040;-47
2021/09/29 00:16:51;;;;;;;5.93;3.05;;;10.50;99.90;;;;;;5070613;28;20033;-48
2021/09/29 00:19:17;;;;;;;7.13;3.60;;;10.50;99.90;;;;;;5071281;28;20421;-48
2021/09/29 00:21:42;;;;;;;6.18;3.50;;;10.50;99.90;;;;;;5070714;28;20104;-47
2021/09/29 00:24:08;;;;;;;4.13;3.20;;;10.50;99.90;;;;;;5070678;28;20056;-48
2021/09/29 00:26:33;;;;;;;5.25;3.72;;;10.60;99.90;;;;;;5070713;28;20024;-47
2021/09/29 00:28:59;;;;;;;4.43;3.47;;;10.60;99.90;;;;;;5070352;28;20016;-46
2021/09/29 00:31:39;;;;;;;6.60;3.72;;;10.60;99.90;;;;;;5070864;28;20099;-47
2021/09/29 00:34:13;;;;;;;8.00;3.97;;;10.60;99.90;;;;;;5070800;28;20152;-50
2021/09/29 00:36:42;;;;;;;4.88;3.10;;;10.60;99.90;;;;;;5064677;28;20032;-47
2021/09/29 00:39:09;;;;;;;4.40;3.53;;;10.60;99.90;;;;;;5062495;28;20034;-47
2021/09/29 00:41:36;;;;;;;5.28;3.72;;;10.60;99.90;;;;;;5070826;28;20039;-47
2021/09/29 00:44:02;;;;;;;5.78;3.08;;;10.60;99.90;;;;;;5070595;28;20020;-47
2021/09/29 00:46:28;;;;;;;5.43;3.58;;;10.50;99.90;;;;;;5070286;28;20048;-46
2021/09/29 00:48:53;;;;;;;5.18;3.70;;;10.50;99.90;;;;;;5069945;28;20052;-47
2021/09/29 00:51:19;;;;;;;10.30;3.88;;;10.40;99.90;;;;;;5070291;28;20469;-47
2021/09/29 00:53:46;;;;;;;5.53;3.67;;;10.50;99.90;;;;;;5070208;28;20036;-48
2021/09/29 00:56:11;;;;;;;6.40;3.75;;;10.50;99.90;;;;;;5070257;28;20090;-46
2021/09/29 00:58:37;;;;;;;5.25;3.83;;;10.50;99.90;;;;;;5069676;28;20071;-47
2021/09/29 01:01:02;;;;;;;3.95;3.55;;;10.50;99.90;;;;;;5069148;28;20033;-46
2021/09/29 01:03:28;;;;;;;5.45;3.80;;;10.50;99.90;;;;;;5070151;28;20040;-49
2021/09/29 01:06:00;;;;;;;5.72;3.90;;;10.50;99.90;;;;;;5063941;28;20017;-46
2021/09/29 01:08:39;;;;;;;5.47;3.53;;;10.50;99.90;;;;;;5059868;28;20029;-47
2021/09/29 01:11:19;;;;;;;4.88;3.90;;;10.50;99.90;;;;;;5070084;28;20056;-47
2021/09/29 01:14:10;;;;;;;6.70;3.60;;;10.50;99.90;;;;;;5069813;28;20070;-47
2021/09/29 01:16:38;;;;;;;4.35;3.45;;;10.50;99.90;;;;;;5069398;28;20033;-47
2021/09/29 01:19:19;;;;;;;10.25;4.88;;;10.50;99.90;;;;;;5070136;28;20024;-48
2021/09/29 01:21:50;;;;;;;9.13;3.60;;;10.50;99.90;;;;;;5068456;28;20534;-47
2021/09/29 01:24:24;;;;;;;4.20;3.25;;;10.50;99.90;;;;;;5070023;28;20028;-47
2021/09/29 01:26:51;;;;;;;8.48;3.83;;;10.50;99.90;;;;;;5069058;28;20033;-46
2021/09/29 01:29:20;;;;;;;6.10;3.17;;;10.60;99.90;;;;;;5068288;28;20021;-47
2021/09/29 01:31:45;;;;;;;5.75;4.07;;;10.60;99.90;;;;;;5069528;28;20177;-46
2021/09/29 01:34:12;;;;;;;4.28;3.60;;;10.50;99.90;;;;;;5069431;28;20474;-47
2021/09/29 01:36:38;;;;;;;6.18;3.47;;;10.60;99.90;;;;;;5064257;28;20086;-48
2021/09/29 01:39:08;;;;;;;9.00;4.43;;;10.60;99.90;;;;;;5060791;28;20025;-49
2021/09/29 01:41:34;;;;;;;4.07;3.58;;;10.60;99.90;;;;;;5060755;28;20103;-47
2021/09/29 01:44:00;;;;;;;6.70;3.95;;;10.60;99.90;;;;;;5039236;28;20033;-47
2021/09/29 01:46:27;;;;;;;9.27;3.45;;;10.70;99.90;;;;;;5038611;28;20087;-47
2021/09/29 01:49:13;;;;;;;8.48;4.40;;;10.70;99.90;;;;;;5038826;28;20255;-47
2021/09/29 01:51:43;;;;;;;4.38;3.42;;;10.70;99.90;;;;;;5029590;28;20112;-47
2021/09/29 01:54:12;;;;;;;4.23;3.17;;;10.70;99.90;;;;;;5029270;28;20053;-47
2021/09/29 01:56:38;;;;;;;8.85;3.80;;;10.70;99.90;;;;;;5031037;28;20556;-47
2021/09/29 01:59:04;;;;;;;4.90;3.85;;;10.80;99.90;;;;;;5030274;28;20048;-47
2021/09/29 02:01:34;;;;;;;5.57;3.83;;;10.80;99.90;;;;;;5029020;28;20028;-47
2021/09/29 02:04:00;;;;;;;7.10;3.70;;;10.80;99.90;;;;;;5039807;28;20502;-46
2021/09/29 02:06:26;;;;;;;4.47;3.35;;;10.80;99.90;;;;;;5052062;28;20037;-48
2021/09/29 02:08:51;;;;;;;8.85;3.60;;;10.70;99.90;;;;;;5054356;28;20090;-46
2021/09/29 02:11:17;;;;;;;6.18;3.83;;;10.70;99.90;;;;;;5068990;28;20426;-48
2021/09/29 02:13:42;;;;;;;9.95;4.45;;;10.70;99.90;;;;;;5050480;28;20037;-47
2021/09/29 02:16:08;;;;;;;6.53;4.03;;;10.80;99.90;;;;;;5028723;28;20112;-47
2021/09/29 02:18:33;;;;;;;7.03;3.78;;;10.80;99.90;;;;;;5034640;28;20031;-47
2021/09/29 02:20:59;;;;;;;8.40;4.07;;;10.80;99.90;;;;;;5048294;28;20029;-47
2021/09/29 02:23:24;;;;;;;5.47;3.40;;;10.80;99.90;;;;;;5044888;28;20450;-47
2021/09/29 02:25:50;;;;;;;6.57;3.80;;;10.80;99.90;;;;;;5029086;28;20026;-48
2021/09/29 02:28:15;;;;;;;6.18;3.67;;;10.80;99.90;;;;;;5029040;28;20034;-47
2021/09/29 02:30:41;;;;;;;6.07;3.33;;;10.80;99.90;;;;;;5048968;28;20064;-48
2021/09/29 02:33:06;;;;;;;3.22;2.90;;;10.80;99.90;;;;;;5048933;28;20029;-48
2021/09/29 02:35:32;;;;;;;9.77;4.38;;;10.80;99.90;;;;;;5048458;28;20471;-48
2021/09/29 02:37:57;;;;;;;6.00;3.50;;;10.80;99.90;;;;;;5055753;28;20029;-48
2021/09/29 02:40:23;;;;;;;5.95;3.83;;;10.80;99.90;;;;;;5068661;28;20029;-49
2021/09/29 02:42:50;;;;;;;5.35;3.55;;;10.80;99.90;;;;;;5068830;28;20024;-48
2021/09/29 02:45:16;;;;;;;4.90;3.42;;;10.80;99.90;;;;;;5068849;28;20479;-50
2021/09/29 02:47:41;;;;;;;5.93;4.03;;;10.80;99.90;;;;;;5066998;28;20025;-48
2021/09/29 02:50:07;;;;;;;6.70;3.97;;;10.80;99.90;;;;;;5068755;28;20039;-48
2021/09/29 02:52:33;;;;;;;11.82;3.97;;;10.80;99.90;;;;;;5068423;28;20029;-48
2021/09/29 02:54:58;;;;;;;6.32;3.80;;;10.80;99.90;;;;;;5068755;28;20138;-47
2021/09/29 02:57:24;;;;;;;6.25;3.90;;;10.80;99.90;;;;;;5067726;28;20029;-51
2021/09/29 02:59:50;;;;;;;7.47;3.60;;;10.80;99.90;;;;;;5068169;28;20024;-48
2021/09/29 03:02:15;;;;;;;4.18;3.55;;;10.80;99.90;;;;;;5041252;28;20033;-48
2021/09/29 03:04:41;;;;;;;9.07;3.95;;;10.70;99.90;;;;;;5038718;28;20021;-47
2021/09/29 03:07:06;;;;;;;7.28;3.92;;;10.70;99.90;;;;;;5037461;28;20032;-47
2021/09/29 03:09:33;;;;;;;7.40;4.03;;;10.70;99.90;;;;;;5059633;28;20114;-48
2021/09/29 03:11:58;;;;;;;7.00;4.82;;;10.70;99.90;;;;;;5068229;28;20097;-47
2021/09/29 03:14:24;;;;;;;5.22;4.45;;;10.70;99.90;;;;;;5068761;28;20041;-48
2021/09/29 03:16:49;;;;;;;15.75;5.00;;;10.70;99.90;;;;;;5065734;28;20524;-48
2021/09/29 03:19:15;;;;;;;6.68;5.03;;;10.60;99.90;;;;;;5068067;28;20082;-47
2021/09/29 03:21:40;;;;;;;9.50;4.35;;;10.60;99.90;;;;;;5067461;28;20445;-48
2021/09/29 03:24:06;;;;;;;7.38;4.32;;;10.60;99.90;;;;;;5067999;28;20028;-48
2021/09/29 03:26:32;;;;;;;7.75;4.20;;;10.60;99.90;;;;;;5068030;28;20111;-49
2021/09/29 03:28:57;;;;;;;9.15;3.55;;;10.60;99.90;;;;;;5067685;28;20028;-48
2021/09/29 03:31:23;;;;;;;13.40;4.63;;;10.50;99.90;;;;;;5068114;28;20029;-51
2021/09/29 03:33:48;;;;;;;5.30;4.13;;;10.60;99.90;;;;;;5066434;28;20028;-48
2021/09/29 03:36:14;;;;;;;6.88;4.88;;;10.60;99.90;;;;;;5059975;28;20030;-48
2021/09/29 03:38:39;;;;;;;11.30;4.57;;;10.50;99.90;;;;;;5051447;28;20068;-48
2021/09/29 03:41:05;;;;;;;10.20;4.93;;;10.50;99.90;;;;;;5067493;28;20048;-50
2021/09/29 03:43:30;;;;;;;8.27;5.10;;;10.50;99.90;;;;;;5068048;28;20017;-48
2021/09/29 03:45:56;;;;;;;4.32;3.90;;;10.60;99.90;;;;;;5067912;28;20044;-48
2021/09/29 03:48:22;;;;;;;7.35;4.50;;;10.50;99.90;;;;;;5067059;28;20064;-48
2021/09/29 03:50:47;;;;;;;5.95;4.57;;;10.50;99.90;;;;;;5067803;28;20025;-47
2021/09/29 03:53:13;;;;;;;9.95;5.35;;;10.50;99.90;;;;;;5067491;28;20024;-50
2021/09/29 03:55:38;;;;;;;11.05;5.28;;;10.60;99.90;;;;;;5067609;28;20029;-48
2021/09/29 03:58:04;;;;;;;8.15;5.18;;;10.50;99.90;;;;;;5067144;28;20128;-48
2021/09/29 04:00:30;;;;;;;7.85;5.00;;;10.50;99.90;;;;;;5052073;28;20050;-48
2021/09/29 04:02:55;;;;;;;6.95;5.30;;;10.50;99.90;;;;;;5059122;28;20120;-50
2021/09/29 04:05:21;;;;;;;11.25;5.68;;;10.50;99.90;;;;;;5071241;28;20365;-48
2021/09/29 04:07:46;;;;;;;8.13;5.72;;;10.50;99.90;;;;;;5053397;28;20194;-48
2021/09/29 04:10:12;;;;;;;21.58;6.80;;;10.50;99.90;;;;;;5061079;28;20054;-48
2021/09/29 04:12:41;;;;;;;8.65;5.88;;;10.60;99.90;;;;;;5071036;28;20039;-51
2021/09/29 04:15:07;;;;;;;10.13;6.35;;;10.50;99.90;;;;;;5071109;28;20029;-47
2021/09/29 04:17:33;;;;;;;9.25;5.57;;;10.50;99.90;;;;;;5070552;28;20029;-48
2021/09/29 04:19:59;;;;;;;10.55;6.20;;;10.50;99.90;;;;;;5070510;28;20020;-47
2021/09/29 04:22:25;;;;;;;11.20;6.00;;;10.50;99.90;;;;;;5070680;28;20032;-48
2021/09/29 04:24:50;;;;;;;13.15;5.88;;;10.50;99.90;;;;;;5056720;28;20031;-49
2021/09/29 04:27:16;;;;;;;10.93;6.72;;;10.50;99.90;;;;;;5045525;28;20025;-48
2021/09/29 04:29:42;;;;;;;11.18;6.90;;;10.50;99.90;;;;;;5049787;28;20029;-48
2021/09/29 04:32:09;;;;;;;10.93;7.20;;;10.50;99.90;;;;;;5070671;28;20172;-51
2021/09/29 04:34:35;;;;;;;9.35;7.05;;;10.50;99.90;;;;;;5070950;28;20016;-50
2021/09/29 04:37:00;;;;;;;8.95;7.00;;;10.60;99.90;;;;;;5057098;28;20013;-48
2021/09/29 04:39:26;;;;;;;7.45;5.80;;;10.50;99.90;;;;;;5062461;28;20108;-47
2021/09/29 04:41:52;;;;;;;7.95;5.88;;;10.50;99.90;;;;;;5070468;28;20019;-48
2021/09/29 04:44:17;;;;;;;10.45;5.63;;;10.50;99.90;;;;;;5069208;28;20056;-51
2021/09/29 04:46:42;;;;;;;7.97;5.10;;;10.50;99.90;;;;;;5069802;28;20033;-50
2021/09/29 04:49:08;;;;;;;10.20;6.25;;;10.50;99.90;;;;;;5070418;28;20033;-48
2021/09/29 04:51:34;;;;;;;8.35;6.05;;;10.50;99.90;;;;;;5051654;28;20025;-48
2021/09/29 04:53:59;;;;;;;11.70;6.72;;;10.50;99.90;;;;;;5064405;28;20039;-49
2021/09/29 04:56:25;;;;;;;12.82;7.68;;;10.50;99.90;;;;;;5051880;28;20388;-48
2021/09/29 04:58:51;;;;;;;13.75;8.20;;;10.60;99.90;;;;;;5065076;28;20029;-49
2021/09/29 05:01:19;;;;;;;13.90;8.23;;;10.50;99.90;;;;;;5058487;28;20069;-47
2021/09/29 05:03:45;;;;;;;10.02;6.70;;;10.60;99.90;;;;;;5070254;28;20021;-48
2021/09/29 05:06:10;;;;;;;14.80;7.80;;;10.50;99.90;;;;;;5066134;28;20020;-48
2021/09/29 05:08:38;;;;;;;11.57;7.50;;;10.50;99.90;;;;;;5053486;28;20024;-47
2021/09/29 05:11:16;;;;;;;13.05;7.57;;;10.40;99.90;;;;;;5066943;28;20024;-50
2021/09/29 05:13:41;;;;;;;12.85;7.90;;;10.50;99.90;;;;;;5048884;28;20034;-49
2021/09/29 05:16:07;;;;;;;10.52;7.55;;;10.40;99.90;;;;;;5059734;28;20535;-50
2021/09/29 05:18:33;;;;;;;10.85;7.60;;;10.40;99.90;;;;;;5057725;28;20029;-49
2021/09/29 05:20:58;;;;;;;12.95;8.32;;;10.40;99.90;;;;;;5061241;28;20478;-47
2021/09/29 05:23:24;;;;;;;12.98;8.30;;;10.40;99.90;;;;;;5069252;28;20066;-48
2021/09/29 05:25:50;;;;;;;12.23;7.65;;;10.40;99.90;;;;;;5069340;28;20025;-47
2021/09/29 05:28:20;;;;;;;14.93;9.25;;;10.40;99.90;;;;;;5048691;28;20040;-48
2021/09/29 05:30:46;;;;;;;11.68;8.00;;;10.50;99.90;;;;;;5037912;28;20042;-47
2021/09/29 05:33:12;;;;;;;14.85;9.77;;;10.50;99.90;;;;;;5039432;28;20041;-48
2021/09/29 05:35:37;;;;;;;14.50;9.80;;;10.50;99.90;;;;;;5041053;28;20021;-48
2021/09/29 05:38:03;;;;;;;15.82;10.38;;;10.60;99.90;;;;;;5039879;28;20028;-48
2021/09/29 05:40:29;;;;;;;12.15;8.77;;;10.60;99.90;;;;;;5036028;28;20021;-49
2021/09/29 05:42:54;;;;;;;17.13;11.07;;;10.60;99.90;;;;;;5038182;28;20131;-47
2021/09/29 05:45:20;;;;;;;14.48;8.98;;;10.70;99.90;;;;;;5041623;28;20036;-48
2021/09/29 05:47:45;;;;;;;12.50;9.00;;;10.70;99.90;;;;;;5040351;28;20075;-48
2021/09/29 05:50:11;;;;;;;13.13;9.38;;;10.80;99.90;;;;;;5038528;28;20032;-48
2021/09/29 05:52:37;;;;;;;15.82;9.43;;;10.90;99.90;;;;;;5038756;28;20025;-47
2021/09/29 05:55:04;;;;;;;14.40;8.82;;;10.90;99.90;;;;;;5035070;28;20036;-48
2021/09/29 05:57:30;;;;;;;10.13;8.45;;;11.00;99.90;;;;;;5038110;28;20398;-48
2021/09/29 05:59:56;;;;;;;11.70;8.75;;;11.00;99.90;;;;;;5038286;28;20018;-47
2021/09/29 06:02:21;;;;;;;15.57;10.25;;;11.10;99.90;;;;;;5036757;28;20061;-48
2021/09/29 06:04:47;;;;;;;13.80;10.13;;;11.20;99.90;;;;;;5038137;28;20048;-47
2021/09/29 06:07:15;;;;;;;16.23;9.93;;;11.30;99.90;;;;;;5038107;28;20021;-47
2021/09/29 06:09:41;;;;;;;23.27;10.43;;;11.40;99.90;;;;;;5041652;28;20052;-47
2021/09/29 06:12:08;;;;;;;12.15;9.30;;;11.40;99.90;;;;;;5043615;28;20035;-48
2021/09/29 06:14:34;;;;;;;12.07;8.18;;;11.50;99.90;;;;;;5038347;28;20034;-47
2021/09/29 06:17:11;;;;;;;16.25;10.95;;;11.50;99.90;;;;;;5037648;28;20028;-48
2021/09/29 06:19:38;;;;;;;15.57;9.95;;;11.60;99.90;;;;;;5024713;28;20028;-49
2021/09/29 06:22:06;;;;;;;19.67;10.75;;;11.60;99.90;;;;;;5040952;28;20493;-49
2021/09/29 06:24:31;;;;;;;19.60;12.02;;;11.70;99.90;;;;;;5038893;28;20366;-50
2021/09/29 06:26:57;;;;;;;17.35;12.27;;;11.70;99.90;;;;;;5033697;28;20148;-49
2021/09/29 06:29:22;;;;;;;24.98;14.80;;;11.80;99.90;;;;;;5028550;28;20069;-47
2021/09/29 06:31:48;;;;;;;23.40;17.17;;;11.80;99.90;;;;;;5028493;28;20057;-48
2021/09/29 06:34:13;;;;;;;28.42;17.13;;;11.90;99.90;;;;;;5028631;28;20029;-49
2021/09/29 06:36:39;;;;;;;26.73;17.83;;;11.90;99.90;;;;;;5027458;28;20062;-47
2021/09/29 06:39:04;;;;;;;18.83;15.45;;;11.90;99.90;;;;;;5028451;28;20031;-48
2021/09/29 06:41:30;;;;;;;23.05;17.13;;;12.00;99.90;;;;;;5028523;28;20029;-47
2021/09/29 06:43:55;;;;;;;24.10;16.27;;;12.00;99.90;;;;;;5039122;28;20410;-47
2021/09/29 06:46:21;;;;;;;30.73;19.10;;;12.10;99.90;;;;;;5043331;28;20333;-48
2021/09/29 06:48:46;;;;;;;22.63;18.10;;;12.10;99.90;;;;;;5045716;28;20033;-49
2021/09/29 06:51:12;;;;;;;31.70;20.67;;;12.20;99.90;;;;;;5040129;28;20040;-48
2021/09/29 06:53:39;;;;;;;23.65;18.88;;;12.20;99.90;;;;;;5049974;28;20081;-50
2021/09/29 06:56:05;;;;;;;23.00;17.27;;;12.30;99.90;;;;;;5068140;28;20040;-51
2021/09/29 06:58:32;;;;;;;29.92;19.80;;;12.30;99.90;;;;;;5045864;28;20021;-48
2021/09/29 07:00:57;;;;;;;26.10;17.40;;;12.40;99.90;;;;;;5040585;28;20048;-48
2021/09/29 07:03:24;;;;;;;27.38;17.45;;;12.40;99.90;;;;;;5041783;28;20025;-50
2021/09/29 07:05:50;;;;;;;26.65;18.35;;;12.40;99.90;;;;;;5044095;28;20419;-47
2021/09/29 07:08:15;;;;;;;20.17;14.85;;;12.50;99.90;;;;;;5044053;28;20355;-47
2021/09/29 07:10:41;;;;;;;19.38;14.18;;;12.50;99.90;;;;;;5041539;28;20028;-48
2021/09/29 07:13:07;;;;;;;21.55;14.07;;;12.60;99.90;;;;;;5047177;28;20064;-48
2021/09/29 07:15:34;;;;;;;24.25;15.80;;;12.60;99.90;;;;;;5053584;28;20024;-48
2021/09/29 07:18:00;;;;;;;20.98;15.45;;;12.70;99.90;;;;;;5051782;28;20044;-48
2021/09/29 07:20:27;;;;;;;23.20;15.00;;;12.70;99.90;;;;;;5053190;28;20029;-49
2021/09/29 07:22:53;;;;;;;24.25;16.58;;;12.70;99.90;;;;;;5037583;28;20067;-51
2021/09/29 07:25:19;;;;;;;18.60;14.15;;;12.70;99.90;;;;;;5036465;28;20043;-48
2021/09/29 07:27:45;;;;;;;23.65;17.33;;;12.70;99.90;;;;;;5037072;28;20033;-47
2021/09/29 07:30:11;;;;;;;26.42;18.52;;;12.70;99.90;;;;;;5040925;28;20029;-49
2021/09/29 07:32:36;;;;;;;22.38;15.25;;;12.70;99.90;;;;;;5042396;28;20076;-51
2021/09/29 07:35:02;;;;;;;21.92;15.18;;;12.80;99.90;;;;;;5049172;28;20024;-52
2021/09/29 07:37:28;;;;;;;20.40;15.02;;;12.80;99.90;;;;;;5039841;28;20393;-49
2021/09/29 07:39:53;;;;;;;29.13;21.10;;;12.80;99.90;;;;;;5045686;28;20024;-49
2021/09/29 07:42:19;;;;;;;24.38;16.65;;;12.80;99.90;;;;;;5040806;28;20299;-50
2021/09/29 07:44:45;;;;;;;21.85;15.85;;;12.70;99.90;;;;;;5041335;28;20073;-49
2021/09/29 07:47:10;;;;;;;22.73;15.90;;;12.70;99.90;;;;;;5040363;28;20466;-48
2021/09/29 07:49:36;;;;;;;26.08;16.98;;;12.70;99.90;;;;;;5040064;28;20029;-49
2021/09/29 07:52:02;;;;;;;32.88;19.58;;;12.70;99.90;;;;;;5040940;28;20029;-48
2021/09/29 07:54:29;;;;;;;27.30;18.52;;;12.80;99.90;;;;;;5039591;28;20025;-48
2021/09/29 07:56:55;;;;;;;31.27;19.35;;;12.70;99.90;;;;;;5039922;28;20029;-50
2021/09/29 07:59:22;;;;;;;27.80;19.38;;;12.70;99.90;;;;;;5045296;28;20032;-48
2021/09/29 08:01:48;;;;;;;27.20;18.02;;;12.70;99.90;;;;;;5040319;28;20041;-51
2021/09/29 08:04:18;;;;;;;27.95;20.70;;;12.70;99.90;;;;;;5041596;28;20025;-48
2021/09/29 08:06:43;;;;;;;32.00;20.92;;;12.80;99.90;;;;;;5038846;28;20021;-49
2021/09/29 08:09:09;;;;;;;26.85;19.23;;;12.80;99.90;;;;;;5050520;28;20649;-50
2021/09/29 08:11:34;;;;;;;31.00;19.63;;;12.80;99.90;;;;;;5039605;28;20032;-47
2021/09/29 08:14:00;;;;;;;29.33;21.42;;;12.80;99.90;;;;;;5040611;28;20125;-49
2021/09/29 08:16:25;;;;;;;29.90;22.40;;;12.80;99.90;;;;;;5040141;28;20029;-51
2021/09/29 08:18:51;;;;;;;28.95;20.98;;;12.90;99.90;;;;;;5041848;28;20033;-50
2021/09/29 08:21:17;;;;;;;33.83;22.83;;;12.90;99.90;;;;;;5040353;28;20479;-49
2021/09/29 08:23:48;;;;;;;30.75;19.45;;;12.90;99.90;;;;;;5045434;28;20022;-49
2021/09/29 08:28:57;;;;;;;33.85;22.42;;;13.00;99.90;;;;;;5040608;28;20370;-48
2021/09/29 08:31:28;;;;;;;33.95;21.98;;;13.00;99.90;;;;;;5045202;28;20398;-51
2021/09/29 08:36:39;;;;;;;28.80;19.98;;;13.30;99.90;;;;;;5039831;28;20037;-49
2021/09/29 08:39:15;;;;;;;29.52;20.27;;;13.40;99.90;;;;;;5047669;28;20035;-51
2021/09/29 08:44:10;;;;;;;30.75;20.83;;;13.60;99.90;;;;;;5039921;28;20136;-48
2021/09/29 08:46:50;;;;;;;28.52;19.95;;;13.60;99.90;;;;;;5038090;28;20045;-48
2021/09/29 08:49:39;;;;;;;31.40;19.73;;;13.70;99.90;;;;;;5037777;28;20245;-49
2021/09/29 09:16:33;;;;;;;25.83;16.55;;;15.10;99.90;;;;;;5042811;28;20148;-49
2021/09/29 09:19:02;;;;;;;;;;;15.80;99.90;;;;;;5056174;28;20029;-48
2021/09/29 09:21:28;;;;;;;26.67;13.98;;;16.30;99.90;;;;;;5057099;28;19921;-49
2021/09/29 09:23:54;;;;;;;19.23;12.88;;;16.50;99.90;;;;;;5043765;28;20098;-49
2021/09/29 09:26:28;;;;;;;16.48;11.35;;;16.90;99.90;;;;;;5050671;28;20029;-52
2021/09/29 09:29:11;;;;;;;19.75;10.82;;;17.60;99.90;;;;;;5063723;28;20042;-50
2021/09/29 09:31:38;;;;;;;19.75;12.43;;;18.10;99.90;;;;;;5055913;28;20032;-51
2021/09/29 09:34:09;;;;;;;20.67;13.48;;;18.70;99.90;;;;;;5059920;28;20128;-50
2021/09/29 09:36:41;;;;;;;15.40;9.25;;;19.20;99.90;;;;;;5045048;28;20030;-51
2021/09/29 09:39:15;;;;;;;18.70;12.25;;;19.70;99.90;;;;;;5059585;28;20471;-51
2021/09/29 09:41:52;;;;;;;16.25;10.10;;;19.50;99.90;;;;;;5059622;28;20534;-51
2021/09/29 09:44:27;;;;;;;16.17;10.35;;;19.60;99.90;;;;;;5039577;28;20395;-51
2021/09/29 09:47:16;;;;;;;14.73;9.65;;;19.60;99.90;;;;;;5039754;28;20072;-49
2021/09/29 09:49:46;;;;;;;13.95;7.82;;;19.60;99.90;;;;;;5038730;28;20497;-51
2021/09/29 09:52:12;;;;;;;17.63;8.27;;;20.20;99.90;;;;;;5040129;28;20108;-50
2021/09/29 09:54:42;;;;;;;10.30;6.80;;;20.10;99.90;;;;;;5037633;28;20032;-52
2021/09/29 09:57:19;;;;;;;10.50;6.40;;;21.60;99.90;;;;;;5038009;28;20038;-52
2021/09/29 10:00:06;;;;;;;11.80;6.10;;;23.00;99.10;;;;;;5036485;28;20029;-49
2021/09/29 10:02:47;;;;;;;10.23;7.30;;;24.00;94.80;;;;;;5039223;28;20017;-50
2021/09/29 10:05:15;;;;;;;9.27;7.43;;;23.70;92.70;;;;;;5037485;28;20279;-50
2021/09/29 10:07:41;;;;;;;12.30;7.35;;;22.90;92.80;;;;;;5034256;28;20029;-50
2021/09/29 10:10:18;;;;;;;10.50;6.63;;;22.20;93.90;;;;;;5044701;28;20025;-48
2021/09/29 10:13:08;;;;;;;11.20;4.78;;;21.30;95.00;;;;;;5035535;28;20111;-49
2021/09/29 10:23:59;;;;;;;7.00;3.58;;;20.10;97.30;;;;;;5036532;28;20095;-51
2021/09/29 10:26:26;;;;;;;5.95;4.30;;;19.60;98.40;;;;;;5031373;28;20032;-49
2021/09/29 10:29:09;;;;;;;8.20;3.95;;;19.20;98.70;;;;;;5028297;28;20021;-49
2021/09/29 10:32:02;;;;;;;6.63;4.80;;;18.60;99.90;;;;;;5028852;28;20029;-49
2021/09/29 10:47:55;;;;;;;6.88;3.67;;;18.20;99.90;;;;;;5036156;28;20028;-51
2021/09/29 11:06:52;;;;;;;7.38;3.78;;;18.40;99.90;;;;;;5038672;28;20051;-50
2021/09/29 11:27:14;;;;;;;7.18;4.70;;;20.70;97.90;;;;;;5072616;28;20558;-51
2021/09/29 11:28:59;;;;;;;5.60;2.75;;;23.10;91.60;;;;;;5031951;28;20040;-49
2021/09/29 11:31:29;;;;;;;4.53;2.33;;;23.80;90.70;;;;;;5032036;28;20033;-49
2021/09/29 11:34:10;;;;;;;7.10;2.53;;;24.50;83.60;;;;;;5033780;28;20438;-50
2021/09/29 11:36:59;;;;;;;4.45;2.45;;;23.60;83.70;;;;;;5055745;28;20060;-49
2021/09/29 11:39:49;;;;;;;5.47;2.60;;;24.10;88.20;;;;;;5053781;28;20033;-50
2021/09/29 12:08:00;;;;;;;5.20;1.83;;;25.70;68.60;;;;;;5040262;28;20033;-51
2021/09/29 12:10:27;;;;;;;5.80;1.83;;;25.90;64.30;;;;;;5055256;28;20647;-50
2021/09/29 12:12:53;;;;;;;3.88;1.48;;;25.20;64.30;;;;;;5052588;28;20520;-50
2021/09/29 12:15:19;;;;;;;4.53;1.45;;;25.50;63.30;;;;;;5049711;28;20379;-50
2021/09/29 12:17:49;;;;;;;5.65;1.65;;;25.00;62.70;;;;;;5031954;28;20037;-47
2021/09/29 12:20:21;;;;;;;2.15;1.27;;;24.50;63.30;;;;;;5035687;28;20028;-50
2021/09/29 12:22:51;;;;;;;4.32;1.38;;;24.40;65.40;;;;;;5052283;28;20145;-49
2021/09/29 12:25:31;;;;;;;4.22;1.40;;;23.80;64.00;;;;;;5045723;28;20538;-49
2021/09/29 12:33:49;;;;;;;3.70;1.15;;;22.40;66.60;;;;;;5044305;28;20371;-50
2021/09/29 12:36:29;;;;;;;2.25;1.20;;;22.90;67.60;;;;;;5048129;28;20498;-50
2021/09/29 12:38:55;;;;;;;3.70;1.63;;;23.10;68.80;;;;;;5053968;28;20037;-50
2021/09/29 12:41:23;;;;;;;5.15;1.67;;;23.10;66.50;;;;;;5065482;28;20028;-49
2021/09/29 12:43:59;;;;;;;4.13;1.50;;;21.90;65.60;;;;;;5053923;28;20141;-50
2021/09/29 12:46:24;;;;;;;3.67;1.40;;;22.00;65.60;;;;;;5054113;28;20031;-50
2021/09/29 12:48:50;;;;;;;7.25;1.52;;;22.00;65.20;;;;;;5047308;28;20033;-50
2021/09/29 12:51:15;;;;;;;3.97;1.30;;;22.00;64.90;;;;;;5031181;28;20032;-47
2021/09/29 12:53:51;;;;;;;2.72;1.40;;;22.20;64.10;;;;;;5032086;28;20029;-49
2021/09/29 12:56:18;;;;;;;2.10;0.95;;;22.20;64.70;;;;;;5032123;28;20120;-49
2021/09/29 12:58:45;;;;;;;2.80;1.23;;;21.80;66.10;;;;;;5031471;28;20387;-48
2021/09/29 13:01:10;;;;;;;5.28;2.20;;;21.80;66.00;;;;;;5031592;28;20025;-50
2021/09/29 13:03:36;;;;;;;1.25;1.13;;;21.70;66.80;;;;;;5044931;28;20413;-49
2021/09/29 13:06:02;;;;;;;4.38;1.75;;;21.60;67.90;;;;;;5055219;28;20029;-49
2021/09/29 13:08:28;;;;;;;2.83;1.30;;;21.30;67.40;;;;;;5043072;28;20175;-50
2021/09/29 13:10:55;;;;;;;2.13;1.20;;;20.80;69.30;;;;;;5063291;28;20561;-50
2021/09/29 13:13:21;;;;;;;3.53;1.42;;;20.80;72.00;;;;;;5053225;28;20108;-48
2021/09/29 13:15:51;;;;;;;3.40;1.58;;;20.70;71.50;;;;;;5041340;28;20025;-50
2021/09/29 13:24:02;;;;;;;4.22;1.80;;;19.90;74.00;;;;;;5057695;28;20072;-51
2021/09/29 13:37:24;;;;;;;6.05;1.45;;;19.70;77.10;;;;;;5051533;28;20084;-49
2021/09/29 13:39:51;;;;;;;8.80;2.00;;;19.60;79.00;;;;;;5050313;28;20064;-51
2021/09/29 13:42:17;;;;;;;8.02;2.00;;;19.60;78.00;;;;;;5050548;28;20071;-49
2021/09/29 13:44:42;;;;;;;5.32;1.70;;;19.30;78.50;;;;;;5050752;28;20052;-51
2021/09/29 13:47:08;;;;;;;6.70;1.48;;;19.30;80.10;;;;;;5048067;28;20628;-50
2021/09/29 13:49:33;;;;;;;6.88;1.77;;;19.30;78.00;;;;;;5049952;28;20021;-50
2021/09/29 13:51:59;;;;;;;3.53;1.65;;;19.20;79.70;;;;;;5050418;28;20083;-50
2021/09/29 13:54:26;;;;;;;5.15;1.70;;;19.10;79.50;;;;;;5049972;28;20072;-51
2021/09/29 13:56:59;;;;;;;9.13;1.63;;;19.10;79.70;;;;;;5049490;28;20102;-51
2021/09/29 13:59:43;;;;;;;5.88;1.50;;;19.10;80.70;;;;;;5050642;28;20017;-48
2021/09/29 14:29:34;;;;;;;4.15;1.55;;;18.60;81.90;;;;;;5049942;28;20117;-48
2021/09/29 14:32:07;;;;;;;4.15;1.60;;;18.60;83.80;;;;;;5048380;28;20029;-51
2021/09/29 14:34:32;;;;;;;2.67;1.25;;;18.50;83.40;;;;;;5049845;28;20028;-51
2021/09/29 14:36:58;;;;;;;3.97;1.45;;;18.50;84.30;;;;;;5049086;28;20044;-49
2021/09/29 14:39:25;;;;;;;5.78;1.38;;;18.60;84.70;;;;;;5053672;28;20017;-51
2021/09/29 14:41:50;;;;;;;5.15;1.20;;;18.60;83.30;;;;;;5067480;28;20073;-50
2021/09/29 14:44:16;;;;;;;4.00;1.75;;;18.60;84.80;;;;;;5069884;28;20427;-50
2021/09/29 14:46:41;;;;;;;5.88;1.30;;;18.50;84.50;;;;;;5069191;28;20021;-49
2021/09/29 14:49:07;;;;;;;3.22;1.48;;;18.40;85.30;;;;;;5069831;28;20480;-49
2021/09/29 14:51:33;;;;;;;5.38;1.50;;;18.40;85.60;;;;;;5069899;28;20032;-48
2021/09/29 14:53:59;;;;;;;4.35;1.50;;;18.30;86.20;;;;;;5069574;28;20040;-49
2021/09/29 14:56:27;;;;;;;3.30;1.30;;;18.30;87.10;;;;;;5068375;28;20028;-49
2021/09/29 14:58:52;;;;;;;4.50;1.70;;;18.10;87.40;;;;;;5067907;28;20107;-50
2021/09/29 15:01:20;;;;;;;7.95;1.95;;;17.90;88.10;;;;;;5069037;28;20163;-49
2021/09/29 15:03:47;;;;;;;4.32;1.27;;;17.80;89.40;;;;;;5069316;28;20036;-50
2021/09/29 15:06:13;;;;;;;3.13;0.70;;;17.60;90.80;;;;;;5068895;28;20027;-48
2021/09/29 15:08:42;;;;;;;1.65;0.50;;;17.30;86.50;;;;;;5059800;28;20024;-50
2021/09/29 15:11:14;;;;;;;0.68;0.63;;;16.80;87.90;;;;;;5058770;28;20025;-49
2021/09/29 15:14:17;;;;;;;2.95;0.77;;;16.50;90.90;;;;;;5068332;28;20043;-48
2021/09/29 15:16:44;;;;;;;0.52;0.38;;;16.00;92.70;;;;;;5067445;28;20045;-48
2021/09/29 15:24:31;;;;;;;1.33;0.68;;;15.00;99.60;;;;;;5069676;28;20059;-48
2021/09/29 15:48:17;;;;;;;4.53;1.50;;;13.20;99.90;;;;;;5067915;28;20059;-48
2021/09/29 15:50:47;;;;;;;2.90;1.17;;;13.20;99.90;;;;;;5068393;28;20482;-48
2021/09/29 16:06:50;;;;;;;4.05;2.53;;;13.10;99.90;;;;;;5025320;28;20033;-49
2021/09/29 16:19:33;;;;;;;4.40;3.20;;;13.00;99.90;;;;;;5072141;28;20032;-50